Time;durP1;ratioP1;P1;durP2;ratioP2;P2;SDS_P1;SDS_P2;PMS_P1;PMS_P2;Temp;Humidity;BMP_temperature;BMP_pressure;BME280_temperature;BME280_humidity;BME280_pressure;Samples;Min_cycle;Max_cycle;Signal;HPM_P1;HPM_P2
2022/05/20 00:01:14;;;;;;;7.10;4.35;;;;;17.60;96946.00;;;;8402089;28;20258;-72
2022/05/20 00:05:18;;;;;;;8.85;4.75;;;;;17.50;96943.00;;;;8402839;28;20281;-76
2022/05/20 00:09:22;;;;;;;7.93;4.20;;;;;17.50;96930.00;;;;8399085;28;20266;-73
2022/05/20 00:13:27;;;;;;;5.47;4.10;;;;;17.40;96930.00;;;;8392893;28;20236;-72
2022/05/20 00:17:31;;;;;;;7.90;4.32;;;;;17.40;96936.00;;;;8407387;28;20227;-75
2022/05/20 00:21:36;;;;;;;8.15;5.00;;;;;17.40;96927.00;;;;8401317;28;20230;-73
2022/05/20 00:25:49;;;;;;;12.88;4.50;;;;;17.30;96942.00;;;;8402564;28;20794;-74
2022/05/20 00:29:52;;;;;;;11.73;4.60;;;;;17.20;96936.00;;;;8400584;28;20219;-77
2022/05/20 00:33:57;;;;;;;5.63;4.32;;;;;17.10;96936.00;;;;8385850;28;20242;-77
2022/05/20 00:38:00;;;;;;;7.68;4.35;;;;;17.00;96940.00;;;;8411485;28;20242;-76
2022/05/20 00:42:11;;;;;;;7.63;4.55;;;;;16.90;96939.00;;;;8400027;28;20241;-78
2022/05/20 00:46:17;;;;;;;8.98;4.60;;;;;16.80;96949.00;;;;8406626;28;20225;-77
2022/05/20 00:50:22;;;;;;;11.10;4.82;;;;;16.70;96948.00;;;;8399131;28;20715;-76
2022/05/20 00:54:29;;;;;;;14.15;4.45;;;;;16.60;96947.00;;;;8392610;28;20227;-77
2022/05/20 00:58:32;;;;;;;8.05;4.90;;;;;16.60;96948.00;;;;8410688;28;20315;-79
2022/05/20 01:02:36;;;;;;;9.45;4.85;;;;;16.60;96954.00;;;;8410686;28;20237;-78
2022/05/20 01:06:40;;;;;;;7.80;4.07;;;;;16.50;96954.00;;;;8399457;28;20814;-78
2022/05/20 01:10:44;;;;;;;5.68;4.40;;;;;16.50;96953.00;;;;8410468;28;20233;-81
2022/05/20 01:14:49;;;;;;;10.63;4.40;;;;;16.40;96958.00;;;;8407456;28;20227;-76
2022/05/20 01:18:53;;;;;;;6.70;4.60;;;;;16.40;96971.00;;;;8404704;28;20228;-80
2022/05/20 01:23:08;;;;;;;13.60;4.45;;;;;16.30;96976.00;;;;8402682;28;20227;-79
2022/05/20 01:27:11;;;;;;;8.95;4.63;;;;;16.20;96974.00;;;;8401859;28;21094;-76
2022/05/20 01:31:16;;;;;;;5.63;4.55;;;;;16.10;96971.00;;;;8396388;28;20298;-78
2022/05/20 01:35:25;;;;;;;8.23;4.97;;;;;16.10;96977.00;;;;8408909;28;20238;-79
2022/05/20 01:39:30;;;;;;;13.48;4.65;;;;;16.00;96979.00;;;;8404370;28;20921;-83
2022/05/20 01:43:52;;;;;;;7.93;4.70;;;;;15.90;96982.00;;;;8404497;28;20688;-77
2022/05/20 01:48:04;;;;;;;8.43;4.75;;;;;15.90;96974.00;;;;8404370;28;20321;-79
2022/05/20 01:52:15;;;;;;;9.98;4.55;;;;;15.90;96974.00;;;;8400809;28;20586;-80
2022/05/20 01:56:24;;;;;;;7.40;5.20;;;;;15.80;96970.00;;;;8405412;28;20326;-77
2022/05/20 02:00:30;;;;;;;9.55;5.13;;;;;15.80;96972.00;;;;8406839;28;20318;-79
2022/05/20 02:04:38;;;;;;;7.18;4.95;;;;;15.70;96969.00;;;;8400459;28;20312;-81
2022/05/20 02:08:46;;;;;;;11.73;5.28;;;;;15.70;96970.00;;;;8398594;28;20739;-82
2022/05/20 02:12:54;;;;;;;21.77;6.50;;;;;15.70;96964.00;;;;8394345;28;20231;-78
2022/05/20 02:17:04;;;;;;;12.55;5.13;;;;;15.70;96967.00;;;;8414295;28;20235;-78
2022/05/20 02:21:12;;;;;;;10.90;5.22;;;;;15.60;96962.00;;;;8408614;28;20310;-83
2022/05/20 02:25:20;;;;;;;8.07;5.10;;;;;15.50;96955.00;;;;8397469;28;22818;-78
2022/05/20 02:29:30;;;;;;;12.23;5.03;;;;;15.50;96957.00;;;;8404318;28;20314;-76
2022/05/20 02:33:33;;;;;;;8.50;4.82;;;;;15.40;96958.00;;;;8416503;28;20263;-77
2022/05/20 02:37:38;;;;;;;14.50;5.13;;;;;15.40;96956.00;;;;8400427;28;20242;-78
2022/05/20 02:41:44;;;;;;;11.18;5.20;;;;;15.30;96958.00;;;;8398803;28;20314;-80
2022/05/20 02:45:50;;;;;;;9.40;5.28;;;;;15.20;96962.00;;;;8420093;28;20794;-78
2022/05/20 02:49:53;;;;;;;12.88;5.57;;;;;15.20;96957.00;;;;8402571;28;20318;-79
2022/05/20 02:53:57;;;;;;;10.23;5.82;;;;;15.10;96959.00;;;;8402450;28;20280;-76
2022/05/20 02:58:00;;;;;;;10.55;5.43;;;;;15.00;96958.00;;;;8405646;28;20227;-78
2022/05/20 03:06:25;;;;;;;38.03;6.22;;;;;14.90;96963.00;;;;8417738;28;20757;-77
2022/05/20 03:10:30;;;;;;;21.33;6.60;;;;;14.80;96959.00;;;;8423077;28;20226;-74
2022/05/20 03:14:34;;;;;;;8.65;5.70;;;;;14.80;96968.00;;;;8419555;28;20226;-78
2022/05/20 03:18:39;;;;;;;19.42;6.07;;;;;14.80;96968.00;;;;8417085;28;20307;-77
2022/05/20 03:22:42;;;;;;;14.27;5.80;;;;;14.70;96959.00;;;;8402096;28;20234;-79
2022/05/20 03:26:47;;;;;;;14.05;5.78;;;;;14.70;96958.00;;;;8388110;28;20654;-77
2022/05/20 03:30:50;;;;;;;14.82;5.97;;;;;14.70;96970.00;;;;8400783;28;20750;-77
2022/05/20 03:34:56;;;;;;;15.05;6.20;;;;;14.70;96964.00;;;;8400491;28;20234;-76
2022/05/20 03:39:00;;;;;;;17.55;6.68;;;;;14.80;96962.00;;;;8400222;28;20244;-73
2022/05/20 03:43:03;;;;;;;13.30;6.88;;;;;14.80;96952.00;;;;8399040;28;20249;-76
2022/05/20 03:47:07;;;;;;;12.82;7.07;;;;;14.90;96958.00;;;;8399060;28;20751;-79
2022/05/20 03:51:13;;;;;;;12.85;7.07;;;;;14.90;96953.00;;;;8403870;28;20305;-79
2022/05/20 03:55:16;;;;;;;14.10;7.50;;;;;15.00;96950.00;;;;8408667;28;20314;-77
2022/05/20 03:59:19;;;;;;;13.48;7.03;;;;;15.10;96958.00;;;;8395265;28;20234;-75
2022/05/20 04:03:22;;;;;;;11.15;6.30;;;;;15.20;96961.00;;;;8378434;28;20306;-76
2022/05/20 04:07:28;;;;;;;15.35;6.60;;;;;15.40;96961.00;;;;8367098;28;20233;-77
2022/05/20 04:11:32;;;;;;;10.07;6.80;;;;;15.60;96964.00;;;;8370999;28;20667;-77
2022/05/20 04:15:35;;;;;;;22.13;9.60;;;;;15.90;96948.00;;;;8371033;28;20307;-79
2022/05/20 04:19:38;;;;;;;12.07;7.53;;;;;16.20;96956.00;;;;8380511;28;20633;-81
2022/05/20 04:23:43;;;;;;;13.80;7.43;;;;;16.40;96947.00;;;;8350407;28;20716;-83
2022/05/20 04:27:47;;;;;;;11.25;7.35;;;;;16.80;96941.00;;;;8365981;28;20712;-81
2022/05/20 04:31:51;;;;;;;17.75;9.02;;;;;17.20;96944.00;;;;8374151;28;20316;-79
2022/05/20 04:35:55;;;;;;;12.48;6.72;;;;;17.60;96945.00;;;;8373033;28;20228;-81
2022/05/20 04:40:00;;;;;;;11.32;6.47;;;;;18.00;96939.00;;;;8381485;28;20247;-81
2022/05/20 04:48:24;;;;;;;8.98;5.22;;;;;18.70;96936.00;;;;8384394;28;20306;-75
2022/05/20 04:52:28;;;;;;;7.43;5.50;;;;;19.00;96940.00;;;;8358314;28;20983;-76
2022/05/20 04:56:32;;;;;;;8.70;6.07;;;;;19.10;96949.00;;;;8380567;28;20267;-76
2022/05/20 05:00:36;;;;;;;12.25;5.65;;;;;19.20;96952.00;;;;8383871;28;20230;-76
2022/05/20 05:04:39;;;;;;;8.10;5.07;;;;;19.40;96958.00;;;;8376167;28;20319;-77
2022/05/20 05:08:42;;;;;;;7.95;5.75;;;;;19.70;96954.00;;;;8381876;28;20926;-79
2022/05/20 05:12:48;;;;;;;10.15;5.13;;;;;19.90;96957.00;;;;8368114;28;20249;-81
2022/05/20 05:16:51;;;;;;;8.50;5.20;;;;;19.90;96952.00;;;;8372286;28;20323;-81
2022/05/20 05:20:55;;;;;;;6.82;5.10;;;;;20.10;96952.00;;;;8372511;28;20227;-81
2022/05/20 05:24:58;;;;;;;12.23;5.32;;;;;20.20;96954.00;;;;8375798;28;20327;-77
2022/05/20 05:29:04;;;;;;;6.97;5.00;;;;;20.30;96955.00;;;;8390323;28;20259;-78
2022/05/20 05:33:07;;;;;;;7.40;5.20;;;;;20.40;96957.00;;;;8369782;28;20239;-77
2022/05/20 05:37:11;;;;;;;6.65;5.35;;;;;20.50;96959.00;;;;8376375;28;20234;-77
2022/05/20 05:41:17;;;;;;;13.05;5.30;;;;;20.60;96964.00;;;;8387664;28;20220;-77
2022/05/20 05:45:24;;;;;;;6.90;5.15;;;;;20.70;96960.00;;;;8376581;28;20230;-77
2022/05/20 05:49:28;;;;;;;6.60;5.20;;;;;21.00;96963.00;;;;8371947;28;20768;-77
2022/05/20 05:53:31;;;;;;;9.45;5.60;;;;;21.30;96965.00;;;;8368007;28;20315;-76
2022/05/20 05:57:34;;;;;;;9.23;5.25;;;;;21.30;96965.00;;;;8354386;28;20251;-75
2022/05/20 06:01:39;;;;;;;9.43;5.40;;;;;21.40;96973.00;;;;8362120;28;20270;-75
2022/05/20 06:05:43;;;;;;;9.40;5.20;;;;;21.40;96971.00;;;;8361321;28;20258;-76
2022/05/20 06:09:46;;;;;;;8.45;5.80;;;;;21.50;96973.00;;;;8379946;28;20236;-76
2022/05/20 06:13:49;;;;;;;8.48;5.80;;;;;21.50;96968.00;;;;8359553;28;20260;-75
2022/05/20 06:17:55;;;;;;;9.43;6.88;;;;;21.50;96971.00;;;;8372764;28;20259;-74
2022/05/20 06:21:58;;;;;;;9.07;6.25;;;;;21.60;96969.00;;;;8366024;28;20252;-72
2022/05/20 06:26:01;;;;;;;8.93;6.28;;;;;21.90;96959.00;;;;8372085;28;20857;-75
2022/05/20 06:30:22;;;;;;;7.18;6.20;;;;;22.40;96957.00;;;;8362082;28;20317;-72
2022/05/20 06:34:26;;;;;;;7.90;5.72;;;;;23.20;96954.00;;;;8377919;28;20344;-75
2022/05/20 06:43:10;;;;;;;9.30;5.78;;;;;24.20;96961.00;;;;8385772;28;20231;-75
2022/05/20 06:47:14;;;;;;;9.68;5.63;;;;;24.50;96960.00;;;;8383123;28;20232;-75
2022/05/20 06:51:21;;;;;;;8.55;5.18;;;;;24.80;96960.00;;;;8379421;28;20228;-75
2022/05/20 06:55:24;;;;;;;8.48;5.72;;;;;25.10;96956.00;;;;8396573;28;20274;-75
2022/05/20 06:59:28;;;;;;;7.70;5.45;;;;;25.40;96953.00;;;;8361625;28;20938;-75
2022/05/20 07:03:32;;;;;;;7.75;4.75;;;;;26.00;96962.00;;;;8366366;28;21354;-75
2022/05/20 07:07:37;;;;;;;8.75;4.50;;;;;26.30;96958.00;;;;8364010;28;20706;-73
2022/05/20 07:11:42;;;;;;;6.53;5.05;;;;;26.30;96953.00;;;;8374768;28;20342;-76
2022/05/20 07:15:45;;;;;;;6.22;4.82;;;;;26.70;96965.00;;;;8367089;28;20323;-74
2022/05/20 07:19:50;;;;;;;8.32;4.65;;;;;27.00;96959.00;;;;8373504;28;20820;-74
2022/05/20 07:23:55;;;;;;;9.13;4.57;;;;;27.30;96950.00;;;;8370931;28;20221;-73
2022/05/20 07:27:59;;;;;;;7.55;4.80;;;;;27.40;96947.00;;;;8373919;28;20619;-74
2022/05/20 07:32:03;;;;;;;8.35;4.47;;;;;27.80;96941.00;;;;8378424;28;20231;-74
2022/05/20 07:36:07;;;;;;;8.27;4.57;;;;;28.10;96941.00;;;;8386242;28;20314;-74
2022/05/20 07:40:13;;;;;;;11.60;4.80;;;;;28.50;96940.00;;;;8381840;28;20229;-74
2022/05/20 07:44:16;;;;;;;6.45;4.60;;;;;28.70;96938.00;;;;8380767;28;20234;-74
2022/05/20 07:48:20;;;;;;;5.13;4.53;;;;;29.00;96942.00;;;;8377566;28;20242;-73
2022/05/20 07:56:49;;;;;;;4.20;3.80;;;;;29.50;96948.00;;;;8360638;28;20310;-75
2022/05/20 08:00:52;;;;;;;4.20;3.80;;;;;29.90;96940.00;;;;8371242;28;20270;-75
2022/05/20 08:04:58;;;;;;;5.85;4.10;;;;;30.20;96936.00;;;;8361633;28;20307;-76
2022/05/20 08:09:02;;;;;;;7.22;4.10;;;;;30.50;96932.00;;;;8370867;28;20281;-74
2022/05/20 08:13:06;;;;;;;8.50;3.97;;;;;30.90;96929.00;;;;8375343;28;20723;-75
2022/05/20 08:17:10;;;;;;;5.55;3.70;;;;;31.20;96937.00;;;;8368746;28;20239;-75
2022/05/20 08:21:13;;;;;;;7.15;4.13;;;;;31.60;96928.00;;;;8365298;28;20236;-74
2022/05/20 08:25:17;;;;;;;5.25;3.85;;;;;32.10;96935.00;;;;8371801;28;20307;-73
2022/05/20 08:29:22;;;;;;;5.28;3.92;;;;;32.40;96926.00;;;;8371283;28;20751;-74
2022/05/20 08:33:25;;;;;;;9.27;4.00;;;;;32.70;96916.00;;;;8369422;28;20299;-73
2022/05/20 08:37:28;;;;;;;6.85;4.07;;;;;33.10;96917.00;;;;8370276;28;20231;-80
2022/05/20 08:41:36;;;;;;;3.70;3.50;;;;;33.40;96914.00;;;;8372940;28;20301;-83
2022/05/20 08:45:42;;;;;;;6.93;3.83;;;;;33.60;96907.00;;;;8393089;28;20339;-81
2022/05/20 08:49:46;;;;;;;3.67;3.20;;;;;33.80;96906.00;;;;8391104;28;20228;-83
2022/05/20 08:53:51;;;;;;;3.90;3.60;;;;;34.00;96903.00;;;;8389140;28;20250;-84
2022/05/20 08:57:58;;;;;;;3.95;3.50;;;;;34.10;96903.00;;;;8386884;28;20299;-81
2022/05/20 09:02:03;;;;;;;5.03;3.72;;;;;34.30;96902.00;;;;8393124;28;20853;-82
2022/05/20 09:06:10;;;;;;;4.38;3.97;;;;;34.80;96894.00;;;;8393700;28;20219;-82
2022/05/20 09:10:14;;;;;;;10.48;3.42;;;;;34.90;96892.00;;;;8387148;28;20242;-77
2022/05/20 09:18:40;;;;;;;7.07;3.65;;;;;35.40;96888.00;;;;8333247;28;21030;-74
2022/05/20 09:22:55;;;;;;;4.57;3.67;;;;;35.60;96881.00;;;;8367542;28;20254;-73
2022/05/20 09:27:03;;;;;;;4.82;3.80;;;;;36.10;96870.00;;;;8360272;28;20230;-74
2022/05/20 09:31:26;;;;;;;10.70;3.90;;;;;36.50;96876.00;;;;8365862;28;20315;-77
2022/05/20 09:35:35;;;;;;;5.93;3.88;;;;;36.70;96873.00;;;;8367615;28;20247;-77
2022/05/20 09:39:41;;;;;;;4.63;3.65;;;;;36.80;96868.00;;;;8361449;28;20696;-77
2022/05/20 09:43:46;;;;;;;6.07;3.38;;;;;36.90;96861.00;;;;8365381;28;20252;-78
2022/05/20 09:47:53;;;;;;;4.55;3.80;;;;;37.30;96851.00;;;;8370675;28;20342;-82
2022/05/20 09:52:01;;;;;;;3.67;3.22;;;;;37.30;96849.00;;;;8375020;28;20686;-80
2022/05/20 09:56:24;;;;;;;6.90;2.88;;;;;37.30;96853.00;;;;8375679;28;20226;-76
2022/05/20 10:00:32;;;;;;;6.65;3.35;;;;;37.30;96853.00;;;;8380160;28;20242;-77
2022/05/20 10:04:46;;;;;;;6.22;3.38;;;;;37.40;96851.00;;;;8377845;28;20753;-81
2022/05/20 10:08:56;;;;;;;6.57;3.90;;;;;37.80;96850.00;;;;8377317;28;20224;-77
2022/05/20 10:13:02;;;;;;;3.65;3.00;;;;;38.40;96838.00;;;;8382685;28;20312;-78
2022/05/20 10:17:12;;;;;;;3.95;3.13;;;;;38.90;96837.00;;;;8395415;28;20670;-78
2022/05/20 10:21:26;;;;;;;7.22;3.40;;;;;39.30;96830.00;;;;8383566;28;20319;-73
2022/05/20 10:25:38;;;;;;;3.50;3.20;;;;;39.30;96830.00;;;;8381514;28;20231;-75
2022/05/20 10:34:12;;;;;;;7.68;3.22;;;;;38.60;96826.00;;;;8361420;28;20223;-74
2022/05/20 10:38:28;;;;;;;3.08;2.88;;;;;38.60;96817.00;;;;8392634;28;20228;-77
2022/05/20 10:42:50;;;;;;;4.63;2.95;;;;;38.80;96811.00;;;;8388593;28;20665;-75
2022/05/20 10:52:02;;;;;;;3.88;3.00;;;;;39.60;96798.00;;;;8396905;28;20223;-80
2022/05/20 10:56:30;;;;;;;3.60;3.20;;;;;40.10;96791.00;;;;8380521;28;20737;-77
2022/05/20 11:00:48;;;;;;;4.13;3.45;;;;;40.10;96798.00;;;;8355799;28;20774;-76
2022/05/20 11:05:12;;;;;;;5.97;3.33;;;;;40.10;96785.00;;;;8356472;28;20311;-75
2022/05/20 11:09:26;;;;;;;5.70;3.22;;;;;40.40;96778.00;;;;8369187;28;20281;-75
2022/05/20 11:13:44;;;;;;;7.25;3.30;;;;;40.20;96765.00;;;;8361845;28;20685;-77
2022/05/20 11:18:13;;;;;;;4.68;3.67;;;;;39.50;96764.00;;;;8364697;28;20315;-78
2022/05/20 11:22:40;;;;;;;7.53;3.50;;;;;39.20;96760.00;;;;8363466;28;20292;-78
2022/05/20 11:27:01;;;;;;;4.07;3.42;;;;;39.60;96748.00;;;;8369066;28;20315;-75
2022/05/20 11:31:16;;;;;;;7.55;3.55;;;;;39.20;96730.00;;;;8349239;28;20238;-76
2022/05/20 11:35:36;;;;;;;5.57;3.63;;;;;38.60;96731.00;;;;8377387;28;20233;-77
2022/05/20 11:40:22;;;;;;;3.72;3.08;;;;;39.00;96728.00;;;;8368987;28;20277;-75
2022/05/20 11:44:45;;;;;;;4.10;3.15;;;;;39.60;96728.00;;;;8370590;28;20308;-78
2022/05/20 11:49:15;;;;;;;6.75;3.95;;;;;39.50;96721.00;;;;8375533;28;20997;-76
2022/05/20 11:53:24;;;;;;;3.53;3.20;;;;;38.60;96735.00;;;;8359248;28;20777;-75
2022/05/20 11:57:32;;;;;;;5.90;3.50;;;;;38.50;96722.00;;;;8373496;28;20226;-77
2022/05/20 12:01:38;;;;;;;5.18;3.17;;;;;39.30;96704.00;;;;8371266;28;20311;-76
2022/05/20 12:05:45;;;;;;;5.85;3.38;;;;;39.90;96697.00;;;;8376683;28;20830;-78
2022/05/20 12:09:52;;;;;;;6.15;3.47;;;;;39.90;96687.00;;;;8377761;28;20698;-75
2022/05/20 12:14:02;;;;;;;3.85;3.42;;;;;39.70;96684.00;;;;8376567;28;20223;-75
2022/05/20 12:24:11;;;;;;;3.28;2.83;;;;;39.80;96668.00;;;;8368946;28;20235;-79
2022/05/20 12:27:42;;;;;;;3.80;2.97;;;;;39.10;96673.00;;;;8265945;28;20943;-76
2022/05/20 12:31:50;;;;;;;6.07;3.05;;;;;38.30;96656.00;;;;8379966;28;20688;-76
2022/05/20 12:36:33;;;;;;;3.95;3.25;;;;;37.00;96656.00;;;;8377858;28;20225;-74
2022/05/20 12:41:16;;;;;;;5.00;2.67;;;;;35.80;96649.00;;;;8366362;28;20627;-75
2022/05/20 12:45:21;;;;;;;3.13;2.67;;;;;35.20;96635.00;;;;8384220;28;20226;-76
2022/05/20 12:49:27;;;;;;;5.32;3.10;;;;;34.90;96625.00;;;;8386693;28;20252;-77
2022/05/20 12:53:32;;;;;;;3.58;3.10;;;;;34.80;96624.00;;;;8376577;28;20317;-77
2022/05/20 12:57:38;;;;;;;7.85;3.10;;;;;34.70;96621.00;;;;8367105;28;20641;-78
2022/05/20 13:01:49;;;;;;;6.65;3.28;;;;;34.50;96614.00;;;;8385703;28;20266;-76
2022/05/20 13:05:56;;;;;;;4.80;3.10;;;;;34.60;96608.00;;;;8372006;28;20266;-76
2022/05/20 13:10:00;;;;;;;4.72;3.20;;;;;34.70;96616.00;;;;8375634;28;20310;-76
2022/05/20 13:14:03;;;;;;;7.20;3.00;;;;;34.90;96602.00;;;;8388908;28;20239;-76
2022/05/20 13:18:14;;;;;;;7.18;3.15;;;;;35.40;96585.00;;;;8391105;28;20482;-76
2022/05/20 13:22:22;;;;;;;4.15;2.97;;;;;35.90;96585.00;;;;8366573;28;20647;-76
2022/05/20 13:26:27;;;;;;;5.05;3.13;;;;;36.40;96565.00;;;;8368592;28;20220;-76
2022/05/20 13:30:33;;;;;;;4.70;3.03;;;;;37.00;96560.00;;;;8367480;28;20224;-76
2022/05/20 13:34:40;;;;;;;9.00;3.38;;;;;37.50;96558.00;;;;8369847;28;20314;-76
2022/05/20 13:38:46;;;;;;;8.15;3.20;;;;;38.00;96546.00;;;;8368408;28;20787;-77
2022/05/20 13:42:52;;;;;;;4.78;3.22;;;;;38.30;96521.00;;;;8350550;28;20671;-76
2022/05/20 13:51:27;;;;;;;2.92;2.67;;;;;38.00;96508.00;;;;8359845;28;20230;-72
2022/05/20 13:55:33;;;;;;;6.30;3.30;;;;;38.60;96502.00;;;;8357865;28;20228;-72
2022/05/20 13:59:38;;;;;;;6.30;3.17;;;;;38.50;96489.00;;;;8353725;28;20334;-71
2022/05/20 14:03:46;;;;;;;5.25;3.65;;;;;38.40;96473.00;;;;8358992;28;20266;-71
2022/05/20 14:07:54;;;;;;;6.93;3.45;;;;;38.10;96462.00;;;;8367512;28;20212;-71
2022/05/20 14:11:57;;;;;;;4.68;3.38;;;;;38.10;96458.00;;;;8373665;28;20327;-71
2022/05/20 14:16:02;;;;;;;3.47;3.17;;;;;38.30;96445.00;;;;8406060;28;20326;-71
2022/05/20 14:20:09;;;;;;;3.35;2.80;;;;;38.00;96448.00;;;;8376325;28;20235;-72
2022/05/20 14:24:17;;;;;;;3.58;3.28;;;;;38.10;96441.00;;;;8387472;28;20222;-72
2022/05/20 14:28:25;;;;;;;3.28;2.97;;;;;38.40;96433.00;;;;8380040;28;20671;-71
2022/05/20 14:32:29;;;;;;;5.82;3.30;;;;;38.70;96423.00;;;;8382261;28;20302;-71
2022/05/20 14:36:35;;;;;;;4.25;3.15;;;;;38.60;96422.00;;;;8360343;28;20251;-71
2022/05/20 14:40:40;;;;;;;5.07;3.40;;;;;38.70;96413.00;;;;8370915;28;20307;-72
2022/05/20 14:44:49;;;;;;;6.18;3.40;;;;;38.30;96413.00;;;;8369330;28;20672;-71
2022/05/20 14:48:55;;;;;;;7.75;3.58;;;;;38.00;96407.00;;;;8384539;28;20947;-71
2022/05/20 14:53:23;;;;;;;5.95;3.30;;;;;38.00;96395.00;;;;8370406;28;20212;-71
2022/05/20 14:57:31;;;;;;;3.65;3.30;;;;;38.10;96389.00;;;;8381522;28;20233;-70
2022/05/20 15:01:36;;;;;;;5.40;3.17;;;;;38.10;96392.00;;;;8390632;28;20823;-71
2022/05/20 15:05:39;;;;;;;3.25;3.03;;;;;38.00;96390.00;;;;8376463;28;20846;-71
2022/05/20 15:09:43;;;;;;;4.70;3.30;;;;;38.00;96379.00;;;;8360568;28;20618;-72
2022/05/20 15:13:48;;;;;;;5.00;3.55;;;;;37.90;96370.00;;;;8366877;28;20224;-72
2022/05/20 15:18:04;;;;;;;6.22;3.25;;;;;37.80;96365.00;;;;8382011;28;20216;-71
2022/05/20 15:22:11;;;;;;;4.40;3.13;;;;;38.20;96361.00;;;;8393818;28;20230;-72
2022/05/20 15:26:19;;;;;;;6.20;3.13;;;;;38.70;96349.00;;;;8379484;28;20230;-72
2022/05/20 15:30:23;;;;;;;6.03;3.50;;;;;38.90;96338.00;;;;8374673;28;20227;-72
2022/05/20 15:38:52;;;;;;;6.15;2.90;;;;;38.60;96323.00;;;;8380386;28;20313;-71
2022/05/20 15:42:57;;;;;;;3.88;3.13;;;;;38.50;96306.00;;;;8381850;28;20219;-71
2022/05/20 15:47:02;;;;;;;6.93;3.38;;;;;38.20;96299.00;;;;8363316;28;20224;-74
2022/05/20 15:51:05;;;;;;;8.95;3.35;;;;;37.70;96292.00;;;;8378370;28;20651;-73
2022/05/20 15:55:17;;;;;;;3.95;3.05;;;;;37.20;96269.00;;;;8362780;28;20224;-73
2022/05/20 15:59:23;;;;;;;6.13;3.08;;;;;37.20;96261.00;;;;8361057;28;20302;-71
2022/05/20 16:03:27;;;;;;;6.30;3.28;;;;;37.20;96248.00;;;;8368344;28;20251;-72
2022/05/20 16:07:31;;;;;;;6.45;3.75;;;;;37.30;96229.00;;;;8378322;28;20237;-74
2022/05/20 16:11:36;;;;;;;6.50;3.67;;;;;37.60;96205.00;;;;8365405;28;20239;-74
2022/05/20 16:15:39;;;;;;;5.97;3.25;;;;;38.00;96187.00;;;;8372061;28;20357;-75
2022/05/20 16:19:44;;;;;;;4.65;2.78;;;;;38.30;96165.00;;;;8363081;28;20223;-70
2022/05/20 16:23:52;;;;;;;5.05;3.28;;;;;38.30;96164.00;;;;8368048;28;20302;-71
2022/05/20 16:27:55;;;;;;;5.10;3.05;;;;;37.60;96193.00;;;;8369076;28;20219;-70
2022/05/20 16:31:58;;;;;;;3.25;2.75;;;;;36.70;96232.00;;;;8361854;28;20227;-70
2022/05/20 16:36:03;;;;;;;6.15;2.90;;;;;35.60;96234.00;;;;8369957;28;20265;-71
2022/05/20 16:40:09;;;;;;;6.55;3.17;;;;;34.70;96229.00;;;;8367431;28;20225;-71
2022/05/20 16:44:13;;;;;;;6.32;3.33;;;;;34.20;96234.00;;;;8370439;28;20319;-71
2022/05/20 16:48:21;;;;;;;5.30;3.65;;;;;33.80;96243.00;;;;8368572;28;20221;-71
2022/05/20 16:52:25;;;;;;;4.65;3.72;;;;;33.50;96235.00;;;;8384671;28;20247;-71
2022/05/20 17:05:12;;;;;;;4.03;3.40;;;;;32.40;96254.00;;;;8396985;28;20275;-72
2022/05/20 17:09:17;;;;;;;4.45;3.55;;;;;32.00;96261.00;;;;8401619;28;20314;-73
2022/05/20 17:13:23;;;;;;;5.85;3.35;;;;;31.60;96251.00;;;;8368058;28;20402;-71
2022/05/20 17:17:26;;;;;;;5.35;3.40;;;;;31.30;96261.00;;;;8372994;28;20666;-71
2022/05/20 17:25:55;;;;;;;6.32;3.60;;;;;30.40;96277.00;;;;8375640;28;20698;-71
2022/05/20 17:30:01;;;;;;;4.45;3.28;;;;;30.30;96275.00;;;;8387392;28;20224;-71
2022/05/20 17:34:04;;;;;;;3.25;2.95;;;;;30.20;96252.00;;;;8374175;28;20305;-72
2022/05/20 17:38:07;;;;;;;9.90;3.50;;;;;30.00;96281.00;;;;8390402;28;20226;-71
2022/05/20 17:42:12;;;;;;;5.13;3.20;;;;;29.70;96319.00;;;;8397924;28;20347;-71
2022/05/20 17:46:15;;;;;;;7.28;3.40;;;;;29.40;96327.00;;;;8394119;28;20306;-71
2022/05/20 17:50:19;;;;;;;7.57;3.58;;;;;29.00;96350.00;;;;8396547;28;20223;-72
2022/05/20 17:54:22;;;;;;;6.60;2.92;;;;;28.20;96333.00;;;;8395172;28;20217;-72
2022/05/20 17:58:28;;;;;;;8.10;3.47;;;;;27.80;96333.00;;;;8365623;28;20251;-72
2022/05/20 18:02:31;;;;;;;4.43;2.85;;;;;27.50;96331.00;;;;8363211;28;20584;-71
2022/05/20 18:06:36;;;;;;;10.00;3.13;;;;;27.00;96332.00;;;;8367500;28;20225;-71
2022/05/20 18:10:44;;;;;;;6.18;3.20;;;;;26.20;96313.00;;;;8369515;28;20227;-70
2022/05/20 18:14:50;;;;;;;7.40;2.80;;;;;25.40;96298.00;;;;8397157;28;20227;-69
2022/05/20 18:18:53;;;;;;;8.63;3.40;;;;;24.60;96296.00;;;;8387456;28;20311;-69
2022/05/20 18:22:57;;;;;;;8.57;3.38;;;;;24.20;96300.00;;;;8383678;28;20223;-69
2022/05/20 18:27:00;;;;;;;6.88;3.58;;;;;23.90;96292.00;;;;8384110;28;20232;-69
2022/05/20 18:31:04;;;;;;;12.13;3.80;;;;;23.80;96285.00;;;;8385731;28;20215;-68
2022/05/20 18:39:28;;;;;;;9.27;3.17;;;;;23.90;96272.00;;;;8389069;28;20227;-69
2022/05/20 18:43:32;;;;;;;7.38;3.38;;;;;23.90;96268.00;;;;8383186;28;20300;-70
2022/05/20 18:47:36;;;;;;;12.93;3.60;;;;;24.00;96257.00;;;;8389759;28;20239;-68
2022/05/20 18:51:39;;;;;;;12.10;3.33;;;;;24.10;96255.00;;;;8396002;28;20306;-68
2022/05/20 18:55:43;;;;;;;9.70;3.33;;;;;24.10;96242.00;;;;8400292;28;20310;-68
2022/05/20 18:59:46;;;;;;;12.07;3.47;;;;;24.10;96243.00;;;;8398189;28;20306;-69
2022/05/20 19:03:51;;;;;;;6.53;3.45;;;;;24.10;96240.00;;;;8398242;28;20267;-68
2022/05/20 19:07:54;;;;;;;13.90;3.35;;;;;23.90;96243.00;;;;8394414;28;20673;-68
2022/05/20 19:11:57;;;;;;;8.93;3.78;;;;;23.70;96238.00;;;;8394576;28;20289;-68
2022/05/20 19:16:00;;;;;;;10.77;3.20;;;;;23.60;96242.00;;;;8386187;28;20219;-69
2022/05/20 19:20:06;;;;;;;8.23;3.30;;;;;23.30;96252.00;;;;8394785;28;20254;-67
2022/05/20 19:24:09;;;;;;;7.25;3.83;;;;;23.00;96258.00;;;;8386497;28;20623;-69
2022/05/20 19:28:13;;;;;;;10.75;4.05;;;;;22.70;96255.00;;;;8405366;28;20393;-68
2022/05/20 19:32:17;;;;;;;13.98;4.07;;;;;22.50;96268.00;;;;8398087;28;20223;-69
2022/05/20 19:36:22;;;;;;;8.70;3.45;;;;;22.40;96266.00;;;;8401660;28;20298;-69
2022/05/20 19:40:25;;;;;;;11.35;4.28;;;;;22.30;96262.00;;;;8407367;28;20221;-69
2022/05/20 19:44:28;;;;;;;5.80;3.50;;;;;22.30;96268.00;;;;8392389;28;20249;-67
2022/05/20 19:48:31;;;;;;;6.88;3.60;;;;;22.40;96270.00;;;;8357107;28;20604;-68
2022/05/20 19:52:36;;;;;;;8.75;3.75;;;;;22.30;96270.00;;;;8359238;28;20224;-68
2022/05/20 19:56:40;;;;;;;14.88;3.58;;;;;22.20;96270.00;;;;8364479;28;20595;-68
2022/05/20 20:00:45;;;;;;;13.02;4.18;;;;;22.20;96288.00;;;;8360163;28;20248;-68
2022/05/20 20:04:48;;;;;;;7.35;3.90;;;;;22.30;96302.00;;;;8362098;28;20775;-68
2022/05/20 20:08:53;;;;;;;13.35;4.40;;;;;22.40;96293.00;;;;8376698;28;20227;-69
2022/05/20 20:13:00;;;;;;;15.82;5.55;;;;;22.60;96279.00;;;;8381174;28;20314;-67
2022/05/20 20:17:15;;;;;;;10.48;4.15;;;;;22.80;96302.00;;;;8369758;28;20230;-67
2022/05/20 20:26:07;;;;;;;14.82;4.90;;;;;23.00;96310.00;;;;8375660;28;20220;-66
2022/05/20 20:30:11;;;;;;;8.90;4.60;;;;;23.00;96341.00;;;;8378335;28;20238;-68
2022/05/20 20:34:15;;;;;;;11.77;4.90;;;;;23.10;96336.00;;;;8371670;28;20585;-68
2022/05/20 20:38:18;;;;;;;13.82;4.35;;;;;23.10;96338.00;;;;8371159;28;20230;-68
2022/05/20 20:42:24;;;;;;;13.57;4.53;;;;;23.00;96310.00;;;;8355105;28;20230;-67
2022/05/20 20:46:40;;;;;;;12.15;4.30;;;;;23.00;96291.00;;;;8371495;28;20830;-71
2022/05/20 20:50:45;;;;;;;10.40;4.55;;;;;22.80;96295.00;;;;8361906;28;20216;-71
2022/05/20 20:54:49;;;;;;;10.32;4.93;;;;;22.70;96311.00;;;;8368326;28;20228;-69
2022/05/20 20:58:54;;;;;;;12.88;4.50;;;;;22.50;96329.00;;;;8376394;28;20315;-69
2022/05/20 21:02:57;;;;;;;13.52;4.25;;;;;22.40;96328.00;;;;8365763;28;20313;-70
2022/05/20 21:07:00;;;;;;;10.65;4.30;;;;;22.40;96357.00;;;;8364233;28;20221;-69
2022/05/20 21:11:05;;;;;;;11.88;4.22;;;;;22.40;96368.00;;;;8368058;28;20231;-70
2022/05/20 21:15:12;;;;;;;12.55;5.03;;;;;22.00;96373.00;;;;8378737;28;20315;-68
2022/05/20 21:19:15;;;;;;;14.02;5.15;;;;;21.40;96379.00;;;;8369647;28;20681;-68
2022/05/20 21:23:19;;;;;;;9.95;4.88;;;;;21.10;96403.00;;;;8382721;28;20300;-69
2022/05/20 21:27:23;;;;;;;6.07;4.68;;;;;20.60;96401.00;;;;8376744;28;20580;-70
2022/05/20 21:31:27;;;;;;;11.93;4.63;;;;;20.30;96366.00;;;;8388728;28;20249;-69
2022/05/20 21:35:31;;;;;;;13.57;4.13;;;;;20.10;96377.00;;;;8368368;28;20288;-71
2022/05/20 21:39:34;;;;;;;6.88;4.03;;;;;20.10;96384.00;;;;8382982;28;20309;-71